Time;durP1;ratioP1;P1;durP2;ratioP2;P2;SDS_P1;SDS_P2;PMS_P1;PMS_P2;Temp;Humidity;BMP_temperature;BMP_pressure;BME280_temperature;BME280_humidity;BME280_pressure;Samples;Min_cycle;Max_cycle;Signal;HPM_P1;HPM_P2
2023/03/03 00:01:16;;;;;;;14.37;12.83;;;;;;;-1.87;100.00;96443.97;5073830;28;20447;-69
2023/03/03 00:03:43;;;;;;;19.87;15.43;;;;;;;-1.96;100.00;96445.44;5090752;28;20470;-69
2023/03/03 00:06:12;;;;;;;19.50;12.00;;;;;;;-1.93;100.00;96448.31;5069663;28;20436;-70
2023/03/03 00:08:40;;;;;;;16.70;12.53;;;;;;;-2.28;100.00;96422.81;5070515;28;20442;-69
2023/03/03 00:11:06;;;;;;;21.13;13.40;;;;;;;-2.04;100.00;96419.97;5090600;28;20649;-69
2023/03/03 00:13:42;;;;;;;19.93;13.87;;;;;;;-1.85;100.00;96449.72;5077213;28;20522;-69
2023/03/03 00:16:15;;;;;;;17.50;12.60;;;;;;;-1.82;100.00;96444.81;5094000;28;20505;-69
2023/03/03 00:18:45;;;;;;;23.27;14.93;;;;;;;-1.85;100.00;96424.59;5093890;28;20950;-69
2023/03/03 00:21:32;;;;;;;19.27;15.07;;;;;;;-1.77;100.00;96446.66;5093795;28;20483;-69
2023/03/03 00:24:43;;;;;;;19.10;13.00;;;;;;;-2.00;100.00;96447.75;5093805;28;20541;-69
2023/03/03 00:27:33;;;;;;;22.93;15.40;;;;;;;-1.98;100.00;96447.50;5072869;28;20475;-69
2023/03/03 00:30:00;;;;;;;20.83;13.70;;;;;;;-2.09;100.00;96447.38;5076756;28;20435;-69
2023/03/03 00:32:42;;;;;;;22.33;15.17;;;;;;;-2.04;100.00;96451.81;5093580;28;20508;-69
2023/03/03 00:35:29;;;;;;;18.77;14.03;;;;;;;-2.04;100.00;96453.63;5093494;28;20481;-69
2023/03/03 00:37:58;;;;;;;22.10;16.33;;;;;;;-2.01;100.00;96456.50;5093765;28;20438;-69
2023/03/03 00:40:36;;;;;;;19.67;13.97;;;;;;;-2.11;100.00;96440.88;5094705;28;20981;-69
2023/03/03 00:43:26;;;;;;;21.47;14.63;;;;;;;-2.15;100.00;96460.50;5077344;28;20427;-69
2023/03/03 00:45:55;;;;;;;23.93;14.10;;;;;;;-2.13;100.00;96446.31;5062429;28;20467;-69
2023/03/03 00:48:24;;;;;;;20.50;15.10;;;;;;;-2.28;100.00;96450.50;5085805;28;20852;-69
2023/03/03 00:50:53;;;;;;;23.03;15.80;;;;;;;-2.35;100.00;96416.28;5072789;28;20551;-69
2023/03/03 00:53:22;;;;;;;20.60;14.80;;;;;;;-2.34;100.00;96423.78;5072966;28;20460;-69
2023/03/03 00:55:50;;;;;;;20.07;15.17;;;;;;;-2.00;100.00;96447.75;5089893;28;20467;-69
2023/03/03 00:58:20;;;;;;;21.73;15.17;;;;;;;-1.98;100.00;96450.88;5089794;28;20448;-70
2023/03/03 01:00:52;;;;;;;21.43;16.03;;;;;;;-2.49;100.00;96408.88;5072669;28;20543;-70
2023/03/03 01:03:25;;;;;;;17.83;13.60;;;;;;;-2.66;100.00;96428.84;5057400;28;20494;-70
2023/03/03 01:05:53;;;;;;;22.27;16.20;;;;;;;-2.73;100.00;96451.50;5072700;28;20815;-70
2023/03/03 01:08:21;;;;;;;24.50;15.33;;;;;;;-2.70;100.00;96453.59;5072720;28;20468;-70
2023/03/03 01:10:57;;;;;;;24.23;16.00;;;;;;;-2.54;100.00;96446.81;5072421;28;20878;-70
2023/03/03 01:13:29;;;;;;;21.30;16.77;;;;;;;-2.42;100.00;96450.09;5072681;28;20970;-70
2023/03/03 01:15:56;;;;;;;17.80;13.63;;;;;;;-2.47;100.00;96417.16;5072806;28;20485;-70
2023/03/03 01:18:23;;;;;;;19.23;14.20;;;;;;;-2.26;100.00;96438.13;5072526;28;20845;-70
2023/03/03 01:20:50;;;;;;;19.50;15.03;;;;;;;-2.45;100.00;96429.88;5072361;28;20995;-70
2023/03/03 01:23:16;;;;;;;24.97;15.30;;;;;;;-2.49;100.00;96426.97;5072580;28;20475;-70
2023/03/03 01:25:43;;;;;;;22.17;15.13;;;;;;;-2.35;100.00;96435.16;5073683;28;20431;-70
2023/03/03 01:28:10;;;;;;;20.67;13.33;;;;;;;-2.25;100.00;96440.47;5072418;28;20864;-70
2023/03/03 01:30:37;;;;;;;18.37;13.90;;;;;;;-2.47;100.00;96408.63;5073583;28;20540;-69
2023/03/03 01:33:03;;;;;;;21.60;13.37;;;;;;;-2.64;100.00;96400.91;5059940;28;20531;-70
2023/03/03 01:35:30;;;;;;;22.13;14.43;;;;;;;-2.71;100.00;96447.66;5090910;28;20484;-70
2023/03/03 01:37:57;;;;;;;19.77;14.20;;;;;;;-2.95;100.00;96433.34;5092626;28;20477;-70
2023/03/03 01:40:28;;;;;;;20.57;13.30;;;;;;;-2.82;100.00;96417.50;5075408;28;20423;-70
2023/03/03 01:42:57;;;;;;;18.30;13.73;;;;;;;-2.72;100.00;96419.44;5077664;28;20953;-70
2023/03/03 01:45:28;;;;;;;25.27;14.10;;;;;;;-2.54;100.00;96442.44;5072277;28;20440;-70
2023/03/03 01:48:09;;;;;;;22.40;14.50;;;;;;;-2.57;100.00;96444.72;5090692;28;20884;-70
2023/03/03 01:51:14;;;;;;;22.73;13.40;;;;;;;-2.56;100.00;96434.13;5071887;28;20483;-70
2023/03/03 02:10:32;;;;;;;18.53;12.60;;;;;;;-2.74;100.00;96385.28;5071221;28;20407;-70
2023/03/03 02:12:58;;;;;;;18.13;12.27;;;;;;;-2.76;100.00;96419.13;5058749;28;20484;-70
2023/03/03 02:15:36;;;;;;;18.47;13.40;;;;;;;-2.78;100.00;96425.59;5080073;28;20419;-70
2023/03/03 02:18:08;;;;;;;18.07;13.70;;;;;;;-2.94;100.00;96395.34;5083555;28;20532;-71
2023/03/03 02:21:01;;;;;;;18.60;14.70;;;;;;;-2.71;100.00;96429.53;5082532;28;20875;-71
2023/03/03 02:23:50;;;;;;;19.23;12.70;;;;;;;-2.86;100.00;96433.75;5067973;28;20509;-71
2023/03/03 02:26:21;;;;;;;20.03;12.20;;;;;;;-2.78;100.00;96426.38;5073213;28;20443;-71
2023/03/03 02:28:53;;;;;;;18.23;14.33;;;;;;;-2.66;100.00;96431.44;5071201;28;21044;-71
2023/03/03 02:31:22;;;;;;;16.40;12.30;;;;;;;-2.83;100.00;96433.25;5069703;28;20465;-71
2023/03/03 02:33:51;;;;;;;20.30;12.67;;;;;;;-2.98;100.00;96408.75;5062928;28;20428;-71
2023/03/03 02:36:23;;;;;;;15.77;13.83;;;;;;;-2.74;100.00;96432.63;5071335;28;20912;-71
2023/03/03 02:39:11;;;;;;;17.40;13.53;;;;;;;-2.62;100.00;96429.16;5071242;28;20599;-71
2023/03/03 02:41:57;;;;;;;19.73;13.50;;;;;;;-2.65;100.00;96430.41;5070541;28;21015;-71
2023/03/03 02:44:31;;;;;;;17.00;13.13;;;;;;;-2.88;100.00;96422.84;5073799;28;20444;-71
2023/03/03 02:46:58;;;;;;;19.17;12.97;;;;;;;-3.09;100.00;96425.13;5084538;28;20431;-71
2023/03/03 02:49:31;;;;;;;21.57;14.83;;;;;;;-3.40;100.00;96384.34;5070874;28;20520;-71
2023/03/03 02:51:59;;;;;;;23.00;15.00;;;;;;;-3.12;100.00;96414.50;5085287;28;20504;-71
2023/03/03 02:54:29;;;;;;;20.10;14.07;;;;;;;-3.12;100.00;96424.84;5082846;28;20443;-71
2023/03/03 02:56:57;;;;;;;16.87;12.80;;;;;;;-2.99;100.00;96425.28;5070703;28;20435;-71
2023/03/03 02:59:25;;;;;;;21.07;14.57;;;;;;;-2.89;100.00;96424.66;5080260;28;20435;-71
2023/03/03 03:01:54;;;;;;;20.63;14.87;;;;;;;-2.81;100.00;96432.00;5088310;28;20458;-71
2023/03/03 03:04:26;;;;;;;18.73;15.10;;;;;;;-3.02;100.00;96433.53;5080150;28;20447;-71
2023/03/03 03:06:54;;;;;;;17.33;13.47;;;;;;;-2.94;100.00;96429.75;5073522;28;20433;-71
2023/03/03 03:09:24;;;;;;;17.57;14.13;;;;;;;-3.05;100.00;96430.63;5070614;28;20531;-71
2023/03/03 03:11:52;;;;;;;24.77;14.27;;;;;;;-3.16;100.00;96424.53;5079685;28;20464;-72
2023/03/03 03:14:22;;;;;;;18.63;13.47;;;;;;;-3.04;100.00;96419.28;5067786;28;20455;-72
2023/03/03 03:16:51;;;;;;;19.87;13.67;;;;;;;-3.05;100.00;96428.06;5067826;28;20432;-72
2023/03/03 03:19:18;;;;;;;22.60;14.90;;;;;;;-3.15;100.00;96408.00;5063919;28;20479;-75
2023/03/03 03:21:45;;;;;;;17.80;12.83;;;;;;;-2.91;100.00;96429.28;5070560;28;20456;-72
2023/03/03 03:24:12;;;;;;;19.80;15.53;;;;;;;-3.16;100.00;96411.59;5084092;28;20435;-72
2023/03/03 03:26:43;;;;;;;21.07;13.80;;;;;;;-3.22;100.00;96409.16;5070555;28;20432;-72
2023/03/03 03:29:09;;;;;;;24.87;16.77;;;;;;;-3.01;100.00;96435.09;5070560;28;20527;-71
2023/03/03 03:31:38;;;;;;;22.07;14.77;;;;;;;-3.26;100.00;96398.53;5070553;28;20864;-71
2023/03/03 03:34:04;;;;;;;21.03;13.37;;;;;;;-3.20;100.00;96407.16;5058391;28;20441;-71
2023/03/03 03:36:32;;;;;;;18.27;11.07;;;;;;;-3.24;100.00;96408.63;5065600;28;20464;-71
2023/03/03 03:39:01;;;;;;;24.23;14.07;;;;;;;-3.02;100.00;96441.28;5085585;28;20534;-71
2023/03/03 03:41:29;;;;;;;24.57;13.90;;;;;;;-3.02;100.00;96436.09;5073906;28;20447;-71
2023/03/03 03:43:55;;;;;;;19.53;14.87;;;;;;;-3.25;100.00;96400.09;5074504;28;20445;-71
2023/03/03 03:46:23;;;;;;;14.47;11.97;;;;;;;-3.44;100.00;96422.81;5079727;28;20435;-71
2023/03/03 03:48:49;;;;;;;39.43;20.67;;;;;;;-3.15;100.00;96431.25;5057681;28;20536;-71
2023/03/03 03:51:18;;;;;;;30.37;19.53;;;;;;;-3.07;100.00;96428.28;5070171;28;20995;-71
2023/03/03 03:53:45;;;;;;;28.20;16.43;;;;;;;-3.33;100.00;96408.25;5070065;28;20489;-71
2023/03/03 03:56:12;;;;;;;22.50;16.87;;;;;;;-3.45;100.00;96423.84;5053803;28;20428;-71
2023/03/03 03:58:40;;;;;;;21.63;14.47;;;;;;;-3.58;100.00;96408.63;5083803;28;20527;-71
2023/03/03 04:01:09;;;;;;;18.57;14.17;;;;;;;-3.64;100.00;96407.75;5059601;28;20467;-71
2023/03/03 04:03:42;;;;;;;18.60;14.33;;;;;;;-3.65;100.00;96400.25;5065935;28;20436;-71
2023/03/03 04:06:12;;;;;;;18.20;12.90;;;;;;;-3.47;100.00;96431.03;5070042;28;20436;-71
2023/03/03 04:08:38;;;;;;;18.23;13.47;;;;;;;-3.54;100.00;96427.81;5061954;28;20466;-71
2023/03/03 04:11:06;;;;;;;21.50;13.23;;;;;;;-3.72;100.00;96418.50;5086576;28;20474;-71
2023/03/03 04:13:34;;;;;;;17.93;12.30;;;;;;;-3.62;100.00;96433.34;5073590;28;20462;-71
2023/03/03 04:16:03;;;;;;;18.57;13.03;;;;;;;-4.21;100.00;96379.44;5080629;28;20437;-71
2023/03/03 04:18:30;;;;;;;20.77;14.83;;;;;;;-3.60;100.00;96442.47;5086614;28;20423;-71
2023/03/03 04:20:58;;;;;;;18.43;13.50;;;;;;;-3.86;100.00;96409.47;5063514;28;20460;-71
2023/03/03 04:23:25;;;;;;;24.27;13.70;;;;;;;-3.54;100.00;96442.53;5086966;28;20443;-71
2023/03/03 04:25:52;;;;;;;17.70;12.50;;;;;;;-3.63;100.00;96440.31;5081080;28;20917;-71
2023/03/03 04:28:21;;;;;;;18.70;12.80;;;;;;;-3.57;100.00;96434.25;5073474;28;20462;-71
2023/03/03 04:30:49;;;;;;;20.03;13.53;;;;;;;-3.65;100.00;96423.50;5073298;28;20456;-71
2023/03/03 04:33:17;;;;;;;16.70;12.43;;;;;;;-3.70;100.00;96415.66;5073442;28;20437;-71
2023/03/03 04:35:44;;;;;;;16.63;13.93;;;;;;;-3.80;100.00;96449.84;5073311;28;20962;-71
2023/03/03 04:38:11;;;;;;;14.20;11.60;;;;;;;-4.23;100.00;96396.94;5072017;28;20445;-71
2023/03/03 04:40:40;;;;;;;19.87;14.47;;;;;;;-3.91;100.00;96430.03;5065036;28;20531;-71
2023/03/03 04:43:08;;;;;;;17.93;13.80;;;;;;;-3.96;100.00;96440.28;5056620;28;20936;-71
2023/03/03 04:45:36;;;;;;;19.93;14.27;;;;;;;-4.11;100.00;96416.75;5073224;28;20439;-71
2023/03/03 04:48:03;;;;;;;18.20;13.73;;;;;;;-3.89;100.00;96454.59;5092789;28;20573;-71
2023/03/03 04:50:30;;;;;;;20.20;14.60;;;;;;;-3.89;100.00;96446.06;5093275;28;20472;-71
2023/03/03 04:52:57;;;;;;;24.40;13.83;;;;;;;-3.88;100.00;96438.09;5073257;28;20517;-71
2023/03/03 04:55:24;;;;;;;21.07;13.50;;;;;;;-3.96;100.00;96417.03;5073068;28;20527;-71
2023/03/03 04:57:50;;;;;;;19.90;14.93;;;;;;;-3.82;100.00;96433.03;5053207;28;20821;-71
2023/03/03 05:00:18;;;;;;;20.43;15.07;;;;;;;-3.91;100.00;96438.56;5066094;28;20444;-71
2023/03/03 05:02:47;;;;;;;22.10;15.07;;;;;;;-3.78;100.00;96465.88;5060606;28;20436;-71
2023/03/03 05:05:14;;;;;;;21.33;14.20;;;;;;;-3.95;100.00;96439.25;5072989;28;20523;-71
2023/03/03 05:07:40;;;;;;;22.27;15.43;;;;;;;-3.87;100.00;96455.16;5094269;28;20848;-71
2023/03/03 05:10:08;;;;;;;23.00;16.10;;;;;;;-4.00;100.00;96424.47;5094152;28;20454;-71
2023/03/03 05:12:34;;;;;;;27.33;17.87;;;;;;;-3.68;100.00;96462.72;5092793;28;20463;-71
2023/03/03 05:15:01;;;;;;;24.10;16.70;;;;;;;-3.91;100.00;96423.06;5078524;28;20432;-71
2023/03/03 05:17:28;;;;;;;23.23;15.47;;;;;;;-3.68;100.00;96454.97;5065080;28;20426;-71
2023/03/03 05:19:56;;;;;;;28.17;18.70;;;;;;;-3.63;100.00;96455.03;5080273;28;20928;-71
2023/03/03 05:22:23;;;;;;;25.23;18.27;;;;;;;-3.92;100.00;96431.03;5072513;28;20468;-71
2023/03/03 05:24:50;;;;;;;24.73;16.53;;;;;;;-3.80;100.00;96459.41;5072447;28;20515;-71
2023/03/03 05:27:17;;;;;;;27.47;15.63;;;;;;;-3.90;100.00;96471.09;5056057;28;20841;-71
2023/03/03 05:29:43;;;;;;;28.10;19.43;;;;;;;-4.27;100.00;96431.19;5086049;28;20978;-71
2023/03/03 05:32:10;;;;;;;29.27;17.20;;;;;;;-4.14;100.00;96463.66;5081416;28;20499;-71
2023/03/03 05:34:39;;;;;;;23.20;18.90;;;;;;;-4.58;100.00;96433.16;5080173;28;20447;-71
2023/03/03 05:37:06;;;;;;;30.77;19.87;;;;;;;-4.10;100.00;96465.56;5084251;28;20460;-71
2023/03/03 05:39:33;;;;;;;33.50;21.37;;;;;;;-3.98;100.00;96455.22;5085582;28;20518;-71
2023/03/03 05:42:00;;;;;;;37.20;21.33;;;;;;;-3.88;100.00;96463.13;5072027;28;20486;-71
2023/03/03 05:44:27;;;;;;;29.37;19.63;;;;;;;-3.78;100.00;96465.09;5072126;28;20432;-71
2023/03/03 05:46:55;;;;;;;38.23;21.43;;;;;;;-3.87;100.00;96455.16;5079861;28;20450;-71
2023/03/03 05:49:22;;;;;;;35.80;20.77;;;;;;;-3.74;100.00;96461.84;5070477;28;20436;-71
2023/03/03 05:51:48;;;;;;;32.63;20.90;;;;;;;-3.65;100.00;96468.19;5091932;28;20588;-71
2023/03/03 05:54:15;;;;;;;27.80;20.10;;;;;;;-3.60;100.00;96472.69;5075765;28;20533;-71
2023/03/03 05:56:42;;;;;;;29.70;20.30;;;;;;;-3.74;100.00;96461.84;5055407;28;20523;-71
2023/03/03 05:59:08;;;;;;;27.37;20.13;;;;;;;-3.92;100.00;96459.44;5074579;28;20431;-71
2023/03/03 06:01:35;;;;;;;27.80;19.40;;;;;;;-3.79;100.00;96486.78;5082318;28;20464;-71
2023/03/03 06:04:02;;;;;;;24.70;17.37;;;;;;;-3.89;100.00;96483.00;5085105;28;20865;-71
2023/03/03 06:06:28;;;;;;;29.97;19.63;;;;;;;-3.92;100.00;96457.66;5071561;28;20447;-71
2023/03/03 06:08:55;;;;;;;34.47;21.90;;;;;;;-3.80;100.00;96491.16;5071504;28;20423;-71
2023/03/03 06:11:23;;;;;;;35.70;21.97;;;;;;;-3.71;100.00;96491.59;5080662;28;20447;-71
2023/03/03 06:13:49;;;;;;;31.03;19.47;;;;;;;-3.82;100.00;96467.38;5075816;28;20446;-71
2023/03/03 06:16:17;;;;;;;33.60;20.53;;;;;;;-3.52;100.00;96487.00;5080195;28;20971;-71
2023/03/03 06:18:43;;;;;;;35.33;20.60;;;;;;;-3.62;100.00;96478.06;5096545;28;20444;-71
2023/03/03 06:21:10;;;;;;;26.27;18.70;;;;;;;-3.43;100.00;96503.72;5082802;28;20490;-71
2023/03/03 06:23:36;;;;;;;25.20;18.53;;;;;;;-3.65;100.00;96480.31;5077972;28;20438;-71
2023/03/03 06:26:03;;;;;;;32.33;20.27;;;;;;;-3.36;100.00;96506.91;5091434;28;20542;-70
2023/03/03 06:28:30;;;;;;;28.83;19.77;;;;;;;-3.33;100.00;96502.09;5077943;28;20989;-70
2023/03/03 06:30:57;;;;;;;26.63;18.90;;;;;;;-3.36;100.00;96514.66;5091533;28;20538;-70
2023/03/03 06:33:23;;;;;;;29.10;18.63;;;;;;;-3.63;100.00;96506.69;5077905;28;20487;-70
2023/03/03 06:35:51;;;;;;;36.77;23.27;;;;;;;-3.66;100.00;96502.78;5078677;28;20436;-70
2023/03/03 06:38:18;;;;;;;27.43;19.93;;;;;;;-3.42;100.00;96523.38;5074530;28;20451;-70
2023/03/03 06:40:46;;;;;;;34.67;23.93;;;;;;;-3.67;100.00;96501.22;5074836;28;20801;-70
2023/03/03 06:43:13;;;;;;;43.93;26.07;;;;;;;-3.36;100.00;96522.41;5057418;28;20432;-70
2023/03/03 06:45:40;;;;;;;40.13;24.90;;;;;;;-3.35;100.00;96518.81;5074572;28;20421;-70
2023/03/03 06:48:06;;;;;;;37.33;23.53;;;;;;;-3.17;100.00;96525.59;5057529;28;20432;-70
2023/03/03 06:50:33;;;;;;;36.53;22.47;;;;;;;-3.20;100.00;96493.25;5070703;28;20527;-70
2023/03/03 06:53:20;;;;;;;36.53;23.77;;;;;;;-2.91;100.00;96529.38;5077711;28;20550;-70
2023/03/03 06:55:47;;;;;;;37.47;22.73;;;;;;;-3.02;100.00;96495.59;5074519;28;20511;-70
2023/03/03 06:58:19;;;;;;;39.63;25.43;;;;;;;-2.74;100.00;96532.72;5087715;28;20464;-70
2023/03/03 07:01:09;;;;;;;41.70;23.40;;;;;;;-2.71;100.00;96527.06;5071991;28;20862;-70
2023/03/03 07:03:35;;;;;;;39.47;24.00;;;;;;;-2.73;100.00;96527.31;5071241;28;21069;-70
2023/03/03 07:06:15;;;;;;;38.43;23.60;;;;;;;-2.65;100.00;96552.03;5084752;28;20470;-70
2023/03/03 07:08:42;;;;;;;50.17;27.67;;;;;;;-2.61;100.00;96553.09;5060017;28;20434;-70
2023/03/03 07:11:14;;;;;;;44.40;27.30;;;;;;;-2.58;100.00;96555.22;5065113;28;20458;-70
2023/03/03 07:13:45;;;;;;;42.87;26.37;;;;;;;-2.57;100.00;96535.28;5084187;28;20551;-70
2023/03/03 07:16:14;;;;;;;40.50;24.70;;;;;;;-2.19;100.00;96574.16;5070448;28;20539;-70
2023/03/03 07:18:49;;;;;;;43.90;26.70;;;;;;;-2.34;100.00;96537.69;5070386;28;20444;-71
2023/03/03 07:21:19;;;;;;;44.87;25.47;;;;;;;-1.98;100.00;96575.22;5070568;28;20455;-71
2023/03/03 07:23:49;;;;;;;36.93;23.43;;;;;;;-2.18;100.00;96538.69;5076717;28;20518;-71
2023/03/03 07:26:32;;;;;;;38.90;25.67;;;;;;;-1.78;100.00;96579.84;5077430;28;20432;-71
2023/03/03 07:29:23;;;;;;;46.43;25.37;;;;;;;-1.76;100.00;96571.81;5072464;28;20447;-71
2023/03/03 07:31:50;;;;;;;40.20;25.40;;;;;;;-1.65;100.00;96576.88;5082661;28;20468;-71
2023/03/03 07:34:21;;;;;;;40.43;26.50;;;;;;;-1.38;100.00;96604.66;5074951;28;20544;-71
2023/03/03 07:36:52;;;;;;;42.17;25.13;;;;;;;-1.27;100.00;96607.13;5090113;28;20885;-71
2023/03/03 07:39:29;;;;;;;42.87;24.90;;;;;;;-1.11;100.00;96609.88;5060370;28;20440;-71
2023/03/03 07:42:08;;;;;;;43.20;24.67;;;;;;;-1.01;100.00;96615.94;5091888;28;20475;-71
2023/03/03 07:44:36;;;;;;;40.17;24.77;;;;;;;-1.16;100.00;96587.28;5074180;28;20431;-71
2023/03/03 07:47:17;;;;;;;41.17;21.90;;;;;;;-0.75;100.00;96618.78;5079873;28;20939;-71
2023/03/03 07:49:45;;;;;;;38.17;24.30;;;;;;;-0.65;100.00;96630.03;5084359;28;20926;-71
2023/03/03 07:52:42;;;;;;;40.53;21.43;;;;;;;-0.43;100.00;96626.56;5074100;28;20959;-71
2023/03/03 07:55:30;;;;;;;38.03;23.47;;;;;;;-0.27;100.00;96622.25;5077123;28;20424;-71
2023/03/03 07:58:11;;;;;;;38.80;23.83;;;;;;;-0.53;100.00;96588.34;5071613;28;20515;-76
2023/03/03 08:00:38;;;;;;;35.33;23.00;;;;;;;-0.24;100.00;96639.97;5087595;28;20446;-75
2023/03/03 08:03:15;;;;;;;39.07;20.67;;;;;;;-0.47;100.00;96622.91;5074186;28;20466;-75
2023/03/03 08:05:45;;;;;;;56.33;33.80;;;;;;;-0.20;100.00;96634.00;5063660;28;20939;-75
2023/03/03 08:08:29;;;;;;;39.87;22.60;;;;;;;-0.22;100.00;96640.50;5094275;28;20445;-75
2023/03/03 08:10:58;;;;;;;30.33;20.20;;;;;;;-0.44;100.00;96596.44;5086705;28;20455;-75
2023/03/03 08:13:38;;;;;;;31.80;21.47;;;;;;;-0.18;100.00;96629.34;5073690;28;20460;-75
2023/03/03 08:16:08;;;;;;;33.50;19.07;;;;;;;-0.07;100.00;96628.38;5047897;28;20445;-75
2023/03/03 08:18:38;;;;;;;56.90;20.97;;;;;;;-0.16;100.00;96634.28;5081812;28;20526;-75
2023/03/03 08:21:13;;;;;;;32.90;21.00;;;;;;;-0.20;100.00;96597.63;5074809;28;20447;-76
2023/03/03 08:23:40;;;;;;;33.97;19.50;;;;;;;0.02;100.00;96609.72;5053773;28;20441;-75
2023/03/03 08:26:07;;;;;;;28.43;17.90;;;;;;;-0.18;100.00;96563.63;5066924;28;20428;-75
2023/03/03 08:28:33;;;;;;;26.40;20.07;;;;;;;0.03;100.00;96593.88;5093849;28;20429;-75
2023/03/03 08:31:00;;;;;;;33.20;20.13;;;;;;;0.16;100.00;96619.44;5093611;28;20998;-75
2023/03/03 08:33:45;;;;;;;27.77;19.00;;;;;;;-0.19;100.00;96536.84;5061675;28;20994;-76
2023/03/03 08:36:13;;;;;;;33.00;21.07;;;;;;;0.34;100.00;96607.03;5073593;28;20463;-76
2023/03/03 08:38:40;;;;;;;34.77;20.27;;;;;;;0.54;100.00;96633.91;5073305;28;20932;-76
2023/03/03 08:41:07;;;;;;;30.80;19.17;;;;;;;0.57;100.00;96630.78;5059836;28;20488;-76
2023/03/03 08:43:34;;;;;;;33.10;20.70;;;;;;;0.65;100.00;96624.31;5074541;28;20424;-76
2023/03/03 08:46:02;;;;;;;30.80;20.50;;;;;;;0.47;100.00;96586.53;5078533;28;20802;-76
2023/03/03 08:48:29;;;;;;;26.47;18.60;;;;;;;0.35;100.00;96569.59;5084493;28;20440;-76
2023/03/03 08:50:56;;;;;;;25.40;17.63;;;;;;;0.80;100.00;96621.78;5059579;28;20997;-76
2023/03/03 08:53:23;;;;;;;37.87;21.97;;;;;;;0.73;100.00;96586.59;5072970;28;20552;-76
2023/03/03 08:55:50;;;;;;;33.50;21.37;;;;;;;1.09;100.00;96626.53;5062218;28;20498;-76
2023/03/03 08:58:18;;;;;;;30.13;19.60;;;;;;;1.05;100.00;96626.22;5083707;28;20440;-76
2023/03/03 09:00:46;;;;;;;26.10;17.93;;;;;;;1.18;100.00;96620.53;5089506;28;20463;-76
2023/03/03 09:03:16;;;;;;;26.17;18.20;;;;;;;0.96;100.00;96611.41;5082573;28;20425;-76
2023/03/03 09:05:44;;;;;;;35.60;19.93;;;;;;;1.15;100.00;96605.44;5072787;28;20948;-76
2023/03/03 09:08:11;;;;;;;30.90;18.50;;;;;;;1.04;100.00;96606.44;5083729;28;20452;-76
2023/03/03 09:10:37;;;;;;;31.53;20.53;;;;;;;1.15;100.00;96604.66;5088246;28;21017;-76
2023/03/03 09:13:17;;;;;;;30.07;20.00;;;;;;;1.46;100.00;96626.28;5084148;28;20826;-76
2023/03/03 09:15:47;;;;;;;24.00;16.93;;;;;;;1.41;100.00;96619.25;5069757;28;20497;-76
2023/03/03 09:18:16;;;;;;;28.00;19.40;;;;;;;1.48;100.00;96626.81;5084347;28;20475;-76
2023/03/03 09:20:51;;;;;;;25.97;18.70;;;;;;;1.67;100.00;96622.63;5059455;28;20440;-76
2023/03/03 09:23:33;;;;;;;23.37;16.73;;;;;;;1.99;100.00;96631.97;5087974;28;20759;-76
2023/03/03 09:26:18;;;;;;;30.10;17.20;;;;;;;2.24;100.00;96633.75;5082153;28;20436;-76
2023/03/03 09:28:45;;;;;;;26.63;16.73;;;;;;;2.05;100.00;96613.47;5072572;28;20528;-76
2023/03/03 09:31:53;;;;;;;19.97;16.20;;;;;;;2.50;100.00;96634.47;5072521;28;20513;-76
2023/03/03 09:34:26;;;;;;;30.03;16.23;;;;;;;2.30;100.00;96628.28;5063102;28;20851;-76
2023/03/03 09:36:54;;;;;;;22.97;15.67;;;;;;;2.35;100.00;96630.88;5059506;28;20489;-76
2023/03/03 09:39:24;;;;;;;22.97;15.13;;;;;;;2.41;100.00;96628.25;5085810;28;20428;-76
2023/03/03 09:42:01;;;;;;;23.53;16.50;;;;;;;2.44;100.00;96628.50;5080155;28;20456;-76
2023/03/03 09:44:50;;;;;;;24.67;16.57;;;;;;;2.45;100.00;96622.22;5078654;28;20471;-76
2023/03/03 09:47:54;;;;;;;24.67;17.00;;;;;;;2.69;100.00;96627.63;5079701;28;20459;-76
2023/03/03 09:50:33;;;;;;;23.67;17.37;;;;;;;2.53;100.00;96595.56;5074177;28;20988;-76
2023/03/03 09:53:02;;;;;;;25.30;16.83;;;;;;;2.99;100.00;96628.53;5072580;28;20487;-76
2023/03/03 09:55:45;;;;;;;24.50;15.73;;;;;;;2.95;100.00;96626.44;5072070;28;20523;-76
2023/03/03 09:58:22;;;;;;;24.60;15.30;;;;;;;2.88;100.00;96639.00;5060500;28;20431;-76
2023/03/03 10:01:12;;;;;;;20.17;16.27;;;;;;;2.70;100.00;96641.47;5075103;28;20494;-77
2023/03/03 10:03:51;;;;;;;22.37;16.37;;;;;;;3.10;100.00;96654.31;5061749;28;20437;-77
2023/03/03 10:06:39;;;;;;;24.90;16.00;;;;;;;3.31;100.00;96652.34;5084628;28;20984;-77
2023/03/03 10:09:24;;;;;;;24.13;17.57;;;;;;;3.31;100.00;96657.56;5072958;28;20845;-77
2023/03/03 10:11:56;;;;;;;24.70;16.77;;;;;;;3.66;100.00;96656.56;5059784;28;20445;-77
2023/03/03 10:14:42;;;;;;;26.00;16.70;;;;;;;3.60;100.00;96646.41;5080584;28;20543;-77
2023/03/03 10:17:15;;;;;;;28.73;15.40;;;;;;;3.68;100.00;96619.69;5079810;28;20489;-77
2023/03/03 10:19:54;;;;;;;26.53;18.23;;;;;;;4.04;100.00;96652.31;5075204;28;20866;-77
2023/03/03 10:22:27;;;;;;;23.90;16.23;;;;;;;3.70;100.00;96649.72;5067392;28;21013;-77
2023/03/03 10:25:15;;;;;;;23.73;16.60;;;;;;;3.79;100.00;96650.69;5060285;28;20950;-77
2023/03/03 10:28:03;;;;;;;20.23;14.67;;;;;;;3.55;100.00;96595.72;5062947;28;20952;-77
2023/03/03 10:30:45;;;;;;;25.77;15.67;;;;;;;3.78;100.00;96617.75;5053051;28;20434;-77
2023/03/03 10:34:15;;;;;;;21.67;15.93;;;;;;;4.08;100.00;96649.94;5085071;28;20468;-77
2023/03/03 10:36:54;;;;;;;20.93;14.10;;;;;;;4.38;100.00;96654.06;5047913;28;20458;-77
2023/03/03 10:39:28;;;;;;;20.33;14.87;;;;;;;4.56;100.00;96658.59;5078411;28;20442;-77
2023/03/03 10:42:29;;;;;;;21.93;15.27;;;;;;;4.68;100.00;96661.63;5082959;28;20526;-77
2023/03/03 10:45:34;;;;;;;19.80;14.60;;;;;;;4.54;100.00;96659.91;5075483;28;20429;-77
2023/03/03 10:48:13;;;;;;;27.37;15.30;;;;;;;4.36;100.00;96653.56;5086167;28;20463;-77
2023/03/03 10:50:58;;;;;;;20.37;14.97;;;;;;;4.45;100.00;96655.31;5084941;28;20520;-77
2023/03/03 10:53:39;;;;;;;26.00;16.70;;;;;;;4.64;100.00;96628.38;5081788;28;20828;-77
2023/03/03 10:56:36;;;;;;;19.50;15.80;;;;;;;4.84;100.00;96643.88;5077986;28;20430;-77
2023/03/03 10:59:35;;;;;;;23.63;14.03;;;;;;;4.84;100.00;96649.09;5058439;28;20447;-78
2023/03/03 11:02:24;;;;;;;15.13;12.83;;;;;;;4.92;100.00;96645.84;5054746;28;20452;-77
2023/03/03 11:04:58;;;;;;;22.13;14.73;;;;;;;4.94;100.00;96641.13;5071316;28;20446;-77
2023/03/03 11:07:41;;;;;;;21.57;14.47;;;;;;;4.90;100.00;96657.66;5086225;28;20420;-77
2023/03/03 11:10:08;;;;;;;20.40;14.00;;;;;;;4.88;100.00;96650.09;5086365;28;20423;-77
2023/03/03 11:12:46;;;;;;;21.47;14.57;;;;;;;5.23;100.00;96653.31;5074684;28;20496;-77
2023/03/03 11:15:34;;;;;;;17.17;12.27;;;;;;;5.35;100.00;96651.06;5077925;28;20444;-78
2023/03/03 11:18:29;;;;;;;16.90;13.30;;;;;;;5.17;100.00;96649.19;5063047;28;20518;-78
2023/03/03 11:21:18;;;;;;;17.60;14.17;;;;;;;5.17;100.00;96643.97;5057461;28;20461;-78
2023/03/03 11:23:50;;;;;;;25.60;14.90;;;;;;;5.55;100.00;96644.72;5051295;28;20444;-78
2023/03/03 11:26:23;;;;;;;18.50;13.63;;;;;;;5.68;100.00;96640.59;5061274;28;20463;-78
2023/03/03 11:29:06;;;;;;;20.63;13.00;;;;;;;5.95;100.00;96629.44;5078933;28;20852;-78
2023/03/03 11:31:47;;;;;;;20.77;13.87;;;;;;;6.12;98.82;96633.06;5073946;28;20483;-78
2023/03/03 11:34:22;;;;;;;15.80;12.80;;;;;;;6.05;97.05;96631.88;5070998;28;20468;-78
2023/03/03 11:37:00;;;;;;;18.10;12.27;;;;;;;5.91;98.66;96603.00;5068718;28;20430;-78
2023/03/03 11:39:27;;;;;;;20.13;14.83;;;;;;;5.85;96.72;96609.34;5065186;28;20916;-78
2023/03/03 11:42:22;;;;;;;19.17;13.60;;;;;;;5.90;95.49;96627.69;5086860;28;20535;-78
2023/03/03 11:45:01;;;;;;;20.03;14.40;;;;;;;5.74;96.13;96593.00;5076944;28;20469;-79
2023/03/03 11:47:37;;;;;;;21.10;12.53;;;;;;;5.83;98.32;96612.25;5077300;28;20436;-79
2023/03/03 11:50:14;;;;;;;18.90;13.57;;;;;;;5.94;96.82;96615.53;5070126;28;20892;-79
2023/03/03 11:53:04;;;;;;;21.20;14.30;;;;;;;5.75;97.02;96599.06;5058531;28;20472;-79
2023/03/03 11:55:40;;;;;;;16.57;13.60;;;;;;;6.09;96.72;96610.00;5085311;28;20427;-79